sensor_id;sensor_type;location;lat;lon;timestamp;temperature;humidity
8436;DHT22;4255;48.730;9.156;2023-07-28T00:02:04;19.40;99.90
8436;DHT22;4255;48.730;9.156;2023-07-28T00:04:29;19.30;99.90
8436;DHT22;4255;48.730;9.156;2023-07-28T00:06:55;19.30;99.90
8436;DHT22;4255;48.730;9.156;2023-07-28T00:09:21;19.30;99.90
8436;DHT22;4255;48.730;9.156;2023-07-28T00:11:48;19.30;99.90
8436;DHT22;4255;48.730;9.156;2023-07-28T00:14:14;19.10;99.90
8436;DHT22;4255;48.730;9.156;2023-07-28T00:16:40;19.00;99.90
8436;DHT22;4255;48.730;9.156;2023-07-28T00:19:05;19.00;99.90
8436;DHT22;4255;48.730;9.156;2023-07-28T00:21:31;19.00;99.90
8436;DHT22;4255;48.730;9.156;2023-07-28T00:23:57;19.00;99.90
8436;DHT22;4255;48.730;9.156;2023-07-28T00:26:23;19.00;99.90
8436;DHT22;4255;48.730;9.156;2023-07-28T00:28:48;19.00;99.90
8436;DHT22;4255;48.730;9.156;2023-07-28T00:31:14;18.90;99.90
8436;DHT22;4255;48.730;9.156;2023-07-28T00:33:40;18.90;99.90
8436;DHT22;4255;48.730;9.156;2023-07-28T00:36:05;18.90;99.90
8436;DHT22;4255;48.730;9.156;2023-07-28T00:38:31;18.90;99.90
8436;DHT22;4255;48.730;9.156;2023-07-28T00:40:57;18.90;99.90
8436;DHT22;4255;48.730;9.156;2023-07-28T00:43:22;18.90;99.90
8436;DHT22;4255;48.730;9.156;2023-07-28T00:45:48;18.90;99.90
8436;DHT22;4255;48.730;9.156;2023-07-28T00:48:14;18.80;99.90
8436;DHT22;4255;48.730;9.156;2023-07-28T00:50:45;18.80;99.90
8436;DHT22;4255;48.730;9.156;2023-07-28T00:53:12;18.90;99.90
8436;DHT22;4255;48.730;9.156;2023-07-28T00:55:38;18.80;99.90
8436;DHT22;4255;48.730;9.156;2023-07-28T00:58:04;18.70;99.90
8436;DHT22;4255;48.730;9.156;2023-07-28T01:00:30;18.70;99.90
8436;DHT22;4255;48.730;9.156;2023-07-28T01:02:56;18.60;99.90
8436;DHT22;4255;48.730;9.156;2023-07-28T01:05:28;18.60;99.90
8436;DHT22;4255;48.730;9.156;2023-07-28T01:08:08;18.60;99.90
8436;DHT22;4255;48.730;9.156;2023-07-28T01:10:35;18.60;99.90
8436;DHT22;4255;48.730;9.156;2023-07-28T01:13:07;18.60;99.90
8436;DHT22;4255;48.730;9.156;2023-07-28T01:15:32;18.50;99.90
8436;DHT22;4255;48.730;9.156;2023-07-28T01:17:58;18.40;99.90
8436;DHT22;4255;48.730;9.156;2023-07-28T01:20:29;18.30;99.90
8436;DHT22;4255;48.730;9.156;2023-07-28T01:23:21;18.30;99.90
8436;DHT22;4255;48.730;9.156;2023-07-28T01:26:08;18.40;99.90
8436;DHT22;4255;48.730;9.156;2023-07-28T01:28:35;18.30;99.90
8436;DHT22;4255;48.730;9.156;2023-07-28T01:31:05;18.30;99.90
8436;DHT22;4255;48.730;9.156;2023-07-28T01:33:31;18.40;99.90
8436;DHT22;4255;48.730;9.156;2023-07-28T01:36:00;18.40;99.90
8436;DHT22;4255;48.730;9.156;2023-07-28T01:38:27;18.40;99.90
8436;DHT22;4255;48.730;9.156;2023-07-28T01:40:52;18.40;99.90
8436;DHT22;4255;48.730;9.156;2023-07-28T01:43:18;18.30;99.90
8436;DHT22;4255;48.730;9.156;2023-07-28T01:45:44;18.30;99.90
8436;DHT22;4255;48.730;9.156;2023-07-28T01:48:12;18.30;99.90
8436;DHT22;4255;48.730;9.156;2023-07-28T01:50:38;18.40;99.90
8436;DHT22;4255;48.730;9.156;2023-07-28T01:53:05;18.30;99.90
8436;DHT22;4255;48.730;9.156;2023-07-28T01:55:31;18.30;99.90
8436;DHT22;4255;48.730;9.156;2023-07-28T01:57:58;18.20;99.90
8436;DHT22;4255;48.730;9.156;2023-07-28T02:00:25;18.20;99.90
8436;DHT22;4255;48.730;9.156;2023-07-28T02:02:51;18.30;99.90
8436;DHT22;4255;48.730;9.156;2023-07-28T02:05:17;18.30;99.90
8436;DHT22;4255;48.730;9.156;2023-07-28T02:07:43;18.30;99.90
8436;DHT22;4255;48.730;9.156;2023-07-28T02:10:09;18.30;99.90
8436;DHT22;4255;48.730;9.156;2023-07-28T02:12:36;18.40;99.90
8436;DHT22;4255;48.730;9.156;2023-07-28T02:15:02;18.40;99.90
8436;DHT22;4255;48.730;9.156;2023-07-28T02:17:27;18.50;99.90
8436;DHT22;4255;48.730;9.156;2023-07-28T02:19:53;18.40;99.90
8436;DHT22;4255;48.730;9.156;2023-07-28T02:22:19;18.50;99.90
8436;DHT22;4255;48.730;9.156;2023-07-28T02:24:44;18.50;99.90
8436;DHT22;4255;48.730;9.156;2023-07-28T02:27:10;18.40;99.90
8436;DHT22;4255;48.730;9.156;2023-07-28T02:29:36;18.40;99.90
8436;DHT22;4255;48.730;9.156;2023-07-28T02:32:01;18.30;99.90
8436;DHT22;4255;48.730;9.156;2023-07-28T02:34:27;18.30;99.90
8436;DHT22;4255;48.730;9.156;2023-07-28T02:36:52;18.30;99.90
8436;DHT22;4255;48.730;9.156;2023-07-28T02:39:18;18.30;99.90
8436;DHT22;4255;48.730;9.156;2023-07-28T02:41:44;18.20;99.90
8436;DHT22;4255;48.730;9.156;2023-07-28T02:44:10;18.30;99.90
8436;DHT22;4255;48.730;9.156;2023-07-28T02:46:35;18.40;99.90
8436;DHT22;4255;48.730;9.156;2023-07-28T02:49:02;18.40;99.90
8436;DHT22;4255;48.730;9.156;2023-07-28T02:51:29;18.40;99.90
8436;DHT22;4255;48.730;9.156;2023-07-28T02:53:56;18.40;99.90
8436;DHT22;4255;48.730;9.156;2023-07-28T02:56:21;18.40;99.90
8436;DHT22;4255;48.730;9.156;2023-07-28T02:58:48;18.40;99.90
8436;DHT22;4255;48.730;9.156;2023-07-28T03:01:14;18.40;99.90
8436;DHT22;4255;48.730;9.156;2023-07-28T03:03:39;18.30;99.90
8436;DHT22;4255;48.730;9.156;2023-07-28T03:06:05;18.20;99.90
8436;DHT22;4255;48.730;9.156;2023-07-28T03:08:30;18.30;99.90
8436;DHT22;4255;48.730;9.156;2023-07-28T03:10:59;18.30;99.90
8436;DHT22;4255;48.730;9.156;2023-07-28T03:13:28;18.40;99.90
8436;DHT22;4255;48.730;9.156;2023-07-28T03:15:53;18.50;99.90
8436;DHT22;4255;48.730;9.156;2023-07-28T03:18:19;18.50;99.90
8436;DHT22;4255;48.730;9.156;2023-07-28T03:20:46;18.50;99.90
8436;DHT22;4255;48.730;9.156;2023-07-28T03:23:11;18.50;99.90
8436;DHT22;4255;48.730;9.156;2023-07-28T03:25:37;18.50;99.90
8436;DHT22;4255;48.730;9.156;2023-07-28T03:28:03;18.60;99.90
8436;DHT22;4255;48.730;9.156;2023-07-28T03:30:28;18.70;99.90
8436;DHT22;4255;48.730;9.156;2023-07-28T03:32:54;18.70;99.90
8436;DHT22;4255;48.730;9.156;2023-07-28T03:35:20;18.90;99.90
8436;DHT22;4255;48.730;9.156;2023-07-28T03:37:46;18.90;99.90
8436;DHT22;4255;48.730;9.156;2023-07-28T03:40:11;18.90;99.90
8436;DHT22;4255;48.730;9.156;2023-07-28T03:42:37;19.00;99.90
8436;DHT22;4255;48.730;9.156;2023-07-28T03:45:03;19.10;99.90
8436;DHT22;4255;48.730;9.156;2023-07-28T03:47:29;19.10;99.90
8436;DHT22;4255;48.730;9.156;2023-07-28T03:49:55;19.10;99.90
8436;DHT22;4255;48.730;9.156;2023-07-28T03:52:20;19.10;99.90
8436;DHT22;4255;48.730;9.156;2023-07-28T03:54:46;19.10;99.90
8436;DHT22;4255;48.730;9.156;2023-07-28T03:57:12;19.00;99.90
8436;DHT22;4255;48.730;9.156;2023-07-28T03:59:37;19.10;99.90
8436;DHT22;4255;48.730;9.156;2023-07-28T04:02:03;19.20;99.90
8436;DHT22;4255;48.730;9.156;2023-07-28T04:04:29;19.20;99.90
8436;DHT22;4255;48.730;9.156;2023-07-28T04:06:54;19.10;99.90
8436;DHT22;4255;48.730;9.156;2023-07-28T04:09:20;19.10;99.90
8436;DHT22;4255;48.730;9.156;2023-07-28T04:11:46;19.10;99.90
8436;DHT22;4255;48.730;9.156;2023-07-28T04:14:12;18.90;99.90
8436;DHT22;4255;48.730;9.156;2023-07-28T04:16:41;18.90;99.90
8436;DHT22;4255;48.730;9.156;2023-07-28T04:19:07;18.90;99.90
8436;DHT22;4255;48.730;9.156;2023-07-28T04:21:33;18.80;99.90
8436;DHT22;4255;48.730;9.156;2023-07-28T04:23:58;18.80;99.90
8436;DHT22;4255;48.730;9.156;2023-07-28T04:26:27;18.80;99.90
8436;DHT22;4255;48.730;9.156;2023-07-28T04:28:53;18.90;99.90
8436;DHT22;4255;48.730;9.156;2023-07-28T04:31:18;19.00;99.90
8436;DHT22;4255;48.730;9.156;2023-07-28T04:33:44;19.20;99.90
8436;DHT22;4255;48.730;9.156;2023-07-28T04:36:10;19.40;99.90
8436;DHT22;4255;48.730;9.156;2023-07-28T04:38:35;19.50;99.90
8436;DHT22;4255;48.730;9.156;2023-07-28T04:41:01;19.60;99.90
8436;DHT22;4255;48.730;9.156;2023-07-28T04:43:28;19.70;99.90
8436;DHT22;4255;48.730;9.156;2023-07-28T04:45:54;19.60;99.90
8436;DHT22;4255;48.730;9.156;2023-07-28T04:48:19;19.60;99.90
8436;DHT22;4255;48.730;9.156;2023-07-28T04:50:45;19.70;99.90
8436;DHT22;4255;48.730;9.156;2023-07-28T04:53:11;19.70;99.90
8436;DHT22;4255;48.730;9.156;2023-07-28T04:55:36;19.70;99.90
8436;DHT22;4255;48.730;9.156;2023-07-28T04:58:02;19.70;99.90
8436;DHT22;4255;48.730;9.156;2023-07-28T05:00:28;19.80;99.90
8436;DHT22;4255;48.730;9.156;2023-07-28T05:02:53;19.80;99.90
8436;DHT22;4255;48.730;9.156;2023-07-28T05:05:19;19.90;99.90
8436;DHT22;4255;48.730;9.156;2023-07-28T05:07:45;19.90;99.90
8436;DHT22;4255;48.730;9.156;2023-07-28T05:10:11;19.90;99.90
8436;DHT22;4255;48.730;9.156;2023-07-28T05:12:36;20.00;99.90
8436;DHT22;4255;48.730;9.156;2023-07-28T05:15:02;20.00;99.90
8436;DHT22;4255;48.730;9.156;2023-07-28T05:17:28;20.00;99.90
8436;DHT22;4255;48.730;9.156;2023-07-28T05:19:53;19.90;99.90
8436;DHT22;4255;48.730;9.156;2023-07-28T05:22:19;19.90;99.90
8436;DHT22;4255;48.730;9.156;2023-07-28T05:24:48;19.90;99.90
8436;DHT22;4255;48.730;9.156;2023-07-28T05:27:14;19.90;99.90
8436;DHT22;4255;48.730;9.156;2023-07-28T05:29:40;19.90;99.90
8436;DHT22;4255;48.730;9.156;2023-07-28T05:32:07;19.90;99.90
8436;DHT22;4255;48.730;9.156;2023-07-28T05:34:32;19.90;99.90
8436;DHT22;4255;48.730;9.156;2023-07-28T05:36:58;19.80;99.90
8436;DHT22;4255;48.730;9.156;2023-07-28T05:39:24;19.90;99.90
8436;DHT22;4255;48.730;9.156;2023-07-28T05:41:49;19.90;99.90
8436;DHT22;4255;48.730;9.156;2023-07-28T05:44:15;19.90;99.90
8436;DHT22;4255;48.730;9.156;2023-07-28T05:46:41;20.00;99.90
8436;DHT22;4255;48.730;9.156;2023-07-28T05:49:06;19.90;99.90
8436;DHT22;4255;48.730;9.156;2023-07-28T05:51:32;19.90;99.90
8436;DHT22;4255;48.730;9.156;2023-07-28T05:53:58;19.70;99.90
8436;DHT22;4255;48.730;9.156;2023-07-28T05:56:23;19.60;99.90
8436;DHT22;4255;48.730;9.156;2023-07-28T05:58:49;19.60;99.90
8436;DHT22;4255;48.730;9.156;2023-07-28T06:01:16;19.60;99.90
8436;DHT22;4255;48.730;9.156;2023-07-28T06:03:42;19.60;99.90
8436;DHT22;4255;48.730;9.156;2023-07-28T06:06:07;19.70;99.90
8436;DHT22;4255;48.730;9.156;2023-07-28T06:08:34;19.70;99.90
8436;DHT22;4255;48.730;9.156;2023-07-28T06:10:59;19.80;99.90
8436;DHT22;4255;48.730;9.156;2023-07-28T06:13:25;19.70;99.90
8436;DHT22;4255;48.730;9.156;2023-07-28T06:15:53;19.70;99.90
8436;DHT22;4255;48.730;9.156;2023-07-28T06:18:19;19.80;99.90
8436;DHT22;4255;48.730;9.156;2023-07-28T06:20:47;19.60;99.90
8436;DHT22;4255;48.730;9.156;2023-07-28T06:23:13;19.50;99.90
8436;DHT22;4255;48.730;9.156;2023-07-28T06:25:39;19.40;99.90
8436;DHT22;4255;48.730;9.156;2023-07-28T06:28:09;19.50;99.90
8436;DHT22;4255;48.730;9.156;2023-07-28T06:30:36;19.60;99.90
8436;DHT22;4255;48.730;9.156;2023-07-28T06:33:02;19.70;99.90
8436;DHT22;4255;48.730;9.156;2023-07-28T06:35:28;19.90;99.90
8436;DHT22;4255;48.730;9.156;2023-07-28T06:37:54;19.90;99.90
8436;DHT22;4255;48.730;9.156;2023-07-28T06:40:20;20.00;99.90
8436;DHT22;4255;48.730;9.156;2023-07-28T06:42:45;20.00;99.90
8436;DHT22;4255;48.730;9.156;2023-07-28T06:45:11;20.20;99.90
8436;DHT22;4255;48.730;9.156;2023-07-28T06:47:37;20.20;99.90
8436;DHT22;4255;48.730;9.156;2023-07-28T06:50:04;20.20;99.90
8436;DHT22;4255;48.730;9.156;2023-07-28T06:52:30;20.30;99.90
8436;DHT22;4255;48.730;9.156;2023-07-28T06:54:56;20.40;99.90
8436;DHT22;4255;48.730;9.156;2023-07-28T06:57:22;20.60;99.90
8436;DHT22;4255;48.730;9.156;2023-07-28T06:59:50;20.60;99.90
8436;DHT22;4255;48.730;9.156;2023-07-28T07:02:16;20.70;99.90
8436;DHT22;4255;48.730;9.156;2023-07-28T07:04:42;20.90;99.90
8436;DHT22;4255;48.730;9.156;2023-07-28T07:07:07;20.90;99.90
8436;DHT22;4255;48.730;9.156;2023-07-28T07:09:33;21.00;99.90
8436;DHT22;4255;48.730;9.156;2023-07-28T07:12:00;21.10;99.90
8436;DHT22;4255;48.730;9.156;2023-07-28T07:14:25;21.10;99.90
8436;DHT22;4255;48.730;9.156;2023-07-28T07:16:51;21.20;99.90
8436;DHT22;4255;48.730;9.156;2023-07-28T07:19:17;21.30;99.90
8436;DHT22;4255;48.730;9.156;2023-07-28T07:21:42;21.30;99.90
8436;DHT22;4255;48.730;9.156;2023-07-28T07:24:10;21.40;99.90
8436;DHT22;4255;48.730;9.156;2023-07-28T07:26:39;21.20;99.90
8436;DHT22;4255;48.730;9.156;2023-07-28T07:29:05;21.20;99.90
8436;DHT22;4255;48.730;9.156;2023-07-28T07:31:31;21.20;99.90
8436;DHT22;4255;48.730;9.156;2023-07-28T07:33:56;21.20;99.90
8436;DHT22;4255;48.730;9.156;2023-07-28T07:36:22;21.40;99.90
8436;DHT22;4255;48.730;9.156;2023-07-28T07:38:49;21.50;99.90
8436;DHT22;4255;48.730;9.156;2023-07-28T07:41:15;21.80;99.90
8436;DHT22;4255;48.730;9.156;2023-07-28T07:43:48;22.00;99.90
8436;DHT22;4255;48.730;9.156;2023-07-28T07:46:15;22.20;99.90
8436;DHT22;4255;48.730;9.156;2023-07-28T07:48:41;22.20;99.90
8436;DHT22;4255;48.730;9.156;2023-07-28T07:51:07;22.30;99.90
8436;DHT22;4255;48.730;9.156;2023-07-28T07:53:34;22.20;99.90
8436;DHT22;4255;48.730;9.156;2023-07-28T07:56:02;22.10;99.90
8436;DHT22;4255;48.730;9.156;2023-07-28T07:58:28;22.10;99.90
8436;DHT22;4255;48.730;9.156;2023-07-28T08:00:55;22.00;99.90
8436;DHT22;4255;48.730;9.156;2023-07-28T08:03:20;22.00;99.90
8436;DHT22;4255;48.730;9.156;2023-07-28T08:05:46;22.20;99.90
8436;DHT22;4255;48.730;9.156;2023-07-28T08:08:12;22.20;99.90
8436;DHT22;4255;48.730;9.156;2023-07-28T08:10:40;22.20;99.90
8436;DHT22;4255;48.730;9.156;2023-07-28T08:13:06;22.20;99.90
8436;DHT22;4255;48.730;9.156;2023-07-28T08:15:31;22.20;99.90
8436;DHT22;4255;48.730;9.156;2023-07-28T08:17:57;22.30;99.90
8436;DHT22;4255;48.730;9.156;2023-07-28T08:20:23;22.20;99.90
8436;DHT22;4255;48.730;9.156;2023-07-28T08:22:48;22.30;99.90
8436;DHT22;4255;48.730;9.156;2023-07-28T08:25:14;22.30;99.90
8436;DHT22;4255;48.730;9.156;2023-07-28T08:27:39;22.30;99.90
8436;DHT22;4255;48.730;9.156;2023-07-28T08:30:05;22.50;99.90
8436;DHT22;4255;48.730;9.156;2023-07-28T08:32:31;22.70;99.90
8436;DHT22;4255;48.730;9.156;2023-07-28T08:34:57;22.50;99.90
8436;DHT22;4255;48.730;9.156;2023-07-28T08:37:23;22.70;99.90
8436;DHT22;4255;48.730;9.156;2023-07-28T08:39:48;22.50;99.90
8436;DHT22;4255;48.730;9.156;2023-07-28T08:42:14;22.60;99.90
8436;DHT22;4255;48.730;9.156;2023-07-28T08:44:40;22.50;99.90
8436;DHT22;4255;48.730;9.156;2023-07-28T08:47:07;22.40;99.90
8436;DHT22;4255;48.730;9.156;2023-07-28T08:49:33;22.10;99.90
8436;DHT22;4255;48.730;9.156;2023-07-28T08:52:01;22.20;99.90
8436;DHT22;4255;48.730;9.156;2023-07-28T08:54:28;22.20;99.90
8436;DHT22;4255;48.730;9.156;2023-07-28T08:56:53;22.00;99.90
8436;DHT22;4255;48.730;9.156;2023-07-28T08:59:30;22.20;99.90
8436;DHT22;4255;48.730;9.156;2023-07-28T09:01:57;22.20;99.90
8436;DHT22;4255;48.730;9.156;2023-07-28T09:04:25;22.50;99.90
8436;DHT22;4255;48.730;9.156;2023-07-28T09:06:51;23.10;99.90
8436;DHT22;4255;48.730;9.156;2023-07-28T09:09:20;23.20;99.90
8436;DHT22;4255;48.730;9.156;2023-07-28T09:11:51;23.20;99.90
8436;DHT22;4255;48.730;9.156;2023-07-28T09:14:18;23.60;99.90
8436;DHT22;4255;48.730;9.156;2023-07-28T09:16:45;23.50;99.90
8436;DHT22;4255;48.730;9.156;2023-07-28T09:19:11;23.40;99.90
8436;DHT22;4255;48.730;9.156;2023-07-28T09:21:43;23.40;99.90
8436;DHT22;4255;48.730;9.156;2023-07-28T09:24:11;23.30;99.90
8436;DHT22;4255;48.730;9.156;2023-07-28T09:26:49;23.10;99.90
8436;DHT22;4255;48.730;9.156;2023-07-28T09:29:20;23.00;99.90
8436;DHT22;4255;48.730;9.156;2023-07-28T09:31:47;22.90;99.90
8436;DHT22;4255;48.730;9.156;2023-07-28T09:34:22;23.00;99.90
8436;DHT22;4255;48.730;9.156;2023-07-28T09:36:49;23.00;99.90
8436;DHT22;4255;48.730;9.156;2023-07-28T09:39:15;23.10;99.90
8436;DHT22;4255;48.730;9.156;2023-07-28T09:41:42;23.00;99.90
8436;DHT22;4255;48.730;9.156;2023-07-28T09:44:09;23.30;99.90
8436;DHT22;4255;48.730;9.156;2023-07-28T09:46:35;23.30;99.90
8436;DHT22;4255;48.730;9.156;2023-07-28T09:49:05;23.60;99.90
8436;DHT22;4255;48.730;9.156;2023-07-28T09:51:36;23.60;99.90
8436;DHT22;4255;48.730;9.156;2023-07-28T09:54:10;23.90;99.90
8436;DHT22;4255;48.730;9.156;2023-07-28T09:56:37;23.60;99.90
8436;DHT22;4255;48.730;9.156;2023-07-28T09:59:07;23.70;99.90
8436;DHT22;4255;48.730;9.156;2023-07-28T10:01:36;24.20;99.90
8436;DHT22;4255;48.730;9.156;2023-07-28T10:04:02;24.50;99.90
8436;DHT22;4255;48.730;9.156;2023-07-28T10:06:28;24.40;99.90
8436;DHT22;4255;48.730;9.156;2023-07-28T10:08:55;24.40;99.90
8436;DHT22;4255;48.730;9.156;2023-07-28T10:11:22;24.30;99.90
8436;DHT22;4255;48.730;9.156;2023-07-28T10:13:51;24.40;99.90
8436;DHT22;4255;48.730;9.156;2023-07-28T10:16:17;24.40;99.90
8436;DHT22;4255;48.730;9.156;2023-07-28T10:18:52;24.20;99.90
8436;DHT22;4255;48.730;9.156;2023-07-28T10:21:19;24.10;99.90
8436;DHT22;4255;48.730;9.156;2023-07-28T10:23:44;24.00;99.90
8436;DHT22;4255;48.730;9.156;2023-07-28T10:26:10;23.70;99.90
8436;DHT22;4255;48.730;9.156;2023-07-28T10:28:38;23.80;99.90
8436;DHT22;4255;48.730;9.156;2023-07-28T10:31:07;23.60;99.90
8436;DHT22;4255;48.730;9.156;2023-07-28T10:33:38;23.50;99.90
8436;DHT22;4255;48.730;9.156;2023-07-28T10:39:16;23.30;99.90
8436;DHT22;4255;48.730;9.156;2023-07-28T10:42:07;23.10;99.90
8436;DHT22;4255;48.730;9.156;2023-07-28T10:44:34;22.90;99.90
8436;DHT22;4255;48.730;9.156;2023-07-28T10:47:01;22.70;99.90
8436;DHT22;4255;48.730;9.156;2023-07-28T10:49:28;22.70;99.90
8436;DHT22;4255;48.730;9.156;2023-07-28T10:51:53;23.10;99.90
8436;DHT22;4255;48.730;9.156;2023-07-28T10:54:19;23.60;99.90
8436;DHT22;4255;48.730;9.156;2023-07-28T10:56:48;24.00;99.90
8436;DHT22;4255;48.730;9.156;2023-07-28T10:59:14;24.20;99.90
8436;DHT22;4255;48.730;9.156;2023-07-28T11:01:41;24.40;99.90
8436;DHT22;4255;48.730;9.156;2023-07-28T11:04:11;24.60;99.90
8436;DHT22;4255;48.730;9.156;2023-07-28T11:06:45;24.90;99.90
8436;DHT22;4255;48.730;9.156;2023-07-28T11:09:14;25.10;99.90
8436;DHT22;4255;48.730;9.156;2023-07-28T11:11:41;25.30;99.90
8436;DHT22;4255;48.730;9.156;2023-07-28T11:14:08;25.30;99.90
8436;DHT22;4255;48.730;9.156;2023-07-28T11:16:40;25.30;99.90
8436;DHT22;4255;48.730;9.156;2023-07-28T11:19:11;25.40;99.90
8436;DHT22;4255;48.730;9.156;2023-07-28T11:21:41;25.50;99.90
8436;DHT22;4255;48.730;9.156;2023-07-28T11:24:07;25.70;99.90
8436;DHT22;4255;48.730;9.156;2023-07-28T11:26:35;25.90;99.90
8436;DHT22;4255;48.730;9.156;2023-07-28T11:29:01;25.90;99.90
8436;DHT22;4255;48.730;9.156;2023-07-28T11:31:28;25.90;99.90
8436;DHT22;4255;48.730;9.156;2023-07-28T11:33:56;26.10;99.90
8436;DHT22;4255;48.730;9.156;2023-07-28T11:36:26;26.60;99.90
8436;DHT22;4255;48.730;9.156;2023-07-28T11:38:53;26.70;99.90
8436;DHT22;4255;48.730;9.156;2023-07-28T11:41:20;26.90;99.90
8436;DHT22;4255;48.730;9.156;2023-07-28T11:43:50;26.70;99.90
8436;DHT22;4255;48.730;9.156;2023-07-28T11:46:36;26.30;99.90
8436;DHT22;4255;48.730;9.156;2023-07-28T11:49:14;26.00;99.90
8436;DHT22;4255;48.730;9.156;2023-07-28T11:51:43;25.70;99.90
8436;DHT22;4255;48.730;9.156;2023-07-28T11:54:14;25.10;99.90
8436;DHT22;4255;48.730;9.156;2023-07-28T11:56:44;24.50;99.90
8436;DHT22;4255;48.730;9.156;2023-07-28T11:59:10;23.90;99.90
8436;DHT22;4255;48.730;9.156;2023-07-28T12:02:09;23.40;99.90
8436;DHT22;4255;48.730;9.156;2023-07-28T12:04:39;23.10;99.90
8436;DHT22;4255;48.730;9.156;2023-07-28T12:07:12;23.10;99.90
8436;DHT22;4255;48.730;9.156;2023-07-28T12:12:28;22.90;99.90
8436;DHT22;4255;48.730;9.156;2023-07-28T12:14:55;23.00;99.90
8436;DHT22;4255;48.730;9.156;2023-07-28T12:17:22;23.20;99.90
8436;DHT22;4255;48.730;9.156;2023-07-28T12:19:59;23.20;99.90
8436;DHT22;4255;48.730;9.156;2023-07-28T12:22:28;23.20;99.90
8436;DHT22;4255;48.730;9.156;2023-07-28T12:24:54;23.50;99.90
8436;DHT22;4255;48.730;9.156;2023-07-28T12:27:20;23.70;99.90
8436;DHT22;4255;48.730;9.156;2023-07-28T12:29:49;23.70;99.90
8436;DHT22;4255;48.730;9.156;2023-07-28T12:32:15;23.80;99.90
8436;DHT22;4255;48.730;9.156;2023-07-28T12:34:40;23.90;99.90
8436;DHT22;4255;48.730;9.156;2023-07-28T12:37:06;23.90;99.90
8436;DHT22;4255;48.730;9.156;2023-07-28T12:39:36;24.10;99.90
8436;DHT22;4255;48.730;9.156;2023-07-28T12:42:08;24.20;99.90
8436;DHT22;4255;48.730;9.156;2023-07-28T12:44:35;24.40;99.90
8436;DHT22;4255;48.730;9.156;2023-07-28T12:47:02;24.50;99.90
8436;DHT22;4255;48.730;9.156;2023-07-28T12:49:29;24.90;99.90
8436;DHT22;4255;48.730;9.156;2023-07-28T12:51:55;25.00;99.90
8436;DHT22;4255;48.730;9.156;2023-07-28T12:54:22;24.90;99.90
8436;DHT22;4255;48.730;9.156;2023-07-28T12:56:48;24.90;99.90
8436;DHT22;4255;48.730;9.156;2023-07-28T12:59:14;24.70;99.90
8436;DHT22;4255;48.730;9.156;2023-07-28T13:01:40;24.70;99.90
8436;DHT22;4255;48.730;9.156;2023-07-28T13:04:06;24.80;99.90
8436;DHT22;4255;48.730;9.156;2023-07-28T13:06:32;24.80;99.90
8436;DHT22;4255;48.730;9.156;2023-07-28T13:08:58;24.80;99.90
8436;DHT22;4255;48.730;9.156;2023-07-28T13:11:23;24.90;99.90
8436;DHT22;4255;48.730;9.156;2023-07-28T13:13:49;24.90;99.90
8436;DHT22;4255;48.730;9.156;2023-07-28T13:16:15;25.10;99.90
8436;DHT22;4255;48.730;9.156;2023-07-28T13:18:43;25.10;99.90
8436;DHT22;4255;48.730;9.156;2023-07-28T13:21:09;25.10;99.90
8436;DHT22;4255;48.730;9.156;2023-07-28T13:23:36;24.80;99.90
8436;DHT22;4255;48.730;9.156;2023-07-28T13:26:02;24.60;99.90
8436;DHT22;4255;48.730;9.156;2023-07-28T13:28:31;24.30;99.90
8436;DHT22;4255;48.730;9.156;2023-07-28T13:30:56;24.10;99.90
8436;DHT22;4255;48.730;9.156;2023-07-28T13:33:22;24.10;99.90
8436;DHT22;4255;48.730;9.156;2023-07-28T13:35:48;24.00;99.90
8436;DHT22;4255;48.730;9.156;2023-07-28T13:38:14;23.90;99.90
8436;DHT22;4255;48.730;9.156;2023-07-28T13:40:39;23.90;99.90
8436;DHT22;4255;48.730;9.156;2023-07-28T13:43:05;23.60;99.90
8436;DHT22;4255;48.730;9.156;2023-07-28T13:45:31;23.60;99.90
8436;DHT22;4255;48.730;9.156;2023-07-28T13:47:56;23.30;99.90
8436;DHT22;4255;48.730;9.156;2023-07-28T13:50:22;23.10;99.90
8436;DHT22;4255;48.730;9.156;2023-07-28T13:52:48;22.90;99.90
8436;DHT22;4255;48.730;9.156;2023-07-28T13:55:14;22.50;99.90
8436;DHT22;4255;48.730;9.156;2023-07-28T13:57:39;22.20;99.90
8436;DHT22;4255;48.730;9.156;2023-07-28T14:00:06;22.10;99.90
8436;DHT22;4255;48.730;9.156;2023-07-28T14:02:38;21.80;99.90
8436;DHT22;4255;48.730;9.156;2023-07-28T14:05:04;21.70;99.90
8436;DHT22;4255;48.730;9.156;2023-07-28T14:07:31;21.40;99.90
8436;DHT22;4255;48.730;9.156;2023-07-28T14:09:56;21.30;99.90
8436;DHT22;4255;48.730;9.156;2023-07-28T14:12:22;21.20;99.90
8436;DHT22;4255;48.730;9.156;2023-07-28T14:14:47;21.10;99.90
8436;DHT22;4255;48.730;9.156;2023-07-28T14:17:15;21.00;99.90
8436;DHT22;4255;48.730;9.156;2023-07-28T14:19:41;20.80;99.90
8436;DHT22;4255;48.730;9.156;2023-07-28T14:22:07;20.70;99.90
8436;DHT22;4255;48.730;9.156;2023-07-28T14:24:32;20.80;99.90
8436;DHT22;4255;48.730;9.156;2023-07-28T14:26:58;21.00;99.90
8436;DHT22;4255;48.730;9.156;2023-07-28T14:29:24;20.80;99.90
8436;DHT22;4255;48.730;9.156;2023-07-28T14:31:49;20.90;99.90
8436;DHT22;4255;48.730;9.156;2023-07-28T14:34:15;21.00;99.90
8436;DHT22;4255;48.730;9.156;2023-07-28T14:36:41;20.90;99.90
8436;DHT22;4255;48.730;9.156;2023-07-28T14:39:06;21.00;99.90
8436;DHT22;4255;48.730;9.156;2023-07-28T14:41:32;21.00;99.90
8436;DHT22;4255;48.730;9.156;2023-07-28T14:43:58;21.20;99.90
8436;DHT22;4255;48.730;9.156;2023-07-28T14:46:24;21.30;99.90
8436;DHT22;4255;48.730;9.156;2023-07-28T14:48:51;21.40;99.90
8436;DHT22;4255;48.730;9.156;2023-07-28T14:51:17;21.40;99.90
8436;DHT22;4255;48.730;9.156;2023-07-28T14:53:43;21.40;99.90
8436;DHT22;4255;48.730;9.156;2023-07-28T14:56:11;21.60;99.90
8436;DHT22;4255;48.730;9.156;2023-07-28T14:58:36;21.90;99.90
8436;DHT22;4255;48.730;9.156;2023-07-28T15:01:02;21.80;99.90
8436;DHT22;4255;48.730;9.156;2023-07-28T15:03:30;21.90;99.90
8436;DHT22;4255;48.730;9.156;2023-07-28T15:05:59;21.90;99.90
8436;DHT22;4255;48.730;9.156;2023-07-28T15:08:25;21.80;99.90
8436;DHT22;4255;48.730;9.156;2023-07-28T15:10:50;22.00;99.90
8436;DHT22;4255;48.730;9.156;2023-07-28T15:13:17;22.20;99.90
8436;DHT22;4255;48.730;9.156;2023-07-28T15:15:43;22.40;99.90
8436;DHT22;4255;48.730;9.156;2023-07-28T15:18:08;22.60;99.90
8436;DHT22;4255;48.730;9.156;2023-07-28T15:20:35;22.60;99.90
8436;DHT22;4255;48.730;9.156;2023-07-28T15:23:00;22.80;99.90
8436;DHT22;4255;48.730;9.156;2023-07-28T15:25:26;22.80;99.90
8436;DHT22;4255;48.730;9.156;2023-07-28T15:27:52;22.70;99.90
8436;DHT22;4255;48.730;9.156;2023-07-28T15:30:18;22.70;99.90
8436;DHT22;4255;48.730;9.156;2023-07-28T15:32:43;22.80;99.90
8436;DHT22;4255;48.730;9.156;2023-07-28T15:35:09;22.90;99.90
8436;DHT22;4255;48.730;9.156;2023-07-28T15:37:36;23.10;99.90
8436;DHT22;4255;48.730;9.156;2023-07-28T15:40:02;23.10;99.90
8436;DHT22;4255;48.730;9.156;2023-07-28T15:42:29;23.00;99.90
8436;DHT22;4255;48.730;9.156;2023-07-28T15:44:54;23.00;99.90
8436;DHT22;4255;48.730;9.156;2023-07-28T15:47:20;23.10;99.90
8436;DHT22;4255;48.730;9.156;2023-07-28T15:49:46;23.10;99.90
8436;DHT22;4255;48.730;9.156;2023-07-28T15:52:11;23.10;99.90
8436;DHT22;4255;48.730;9.156;2023-07-28T15:54:37;23.20;99.90
8436;DHT22;4255;48.730;9.156;2023-07-28T15:57:03;23.20;99.90
8436;DHT22;4255;48.730;9.156;2023-07-28T15:59:32;23.30;99.90
8436;DHT22;4255;48.730;9.156;2023-07-28T16:01:57;23.30;99.90
8436;DHT22;4255;48.730;9.156;2023-07-28T16:04:23;23.40;99.90
8436;DHT22;4255;48.730;9.156;2023-07-28T16:06:49;23.40;99.90